createdAt,value
2018-11-02T00:02:02.364Z,7.70
2018-11-02T00:04:31.075Z,7.70
2018-11-02T00:07:00.180Z,7.70
2018-11-02T00:09:28.794Z,7.70
2018-11-02T00:11:57.214Z,7.70
2018-11-02T00:14:25.746Z,7.70
2018-11-02T00:16:54.198Z,7.70
2018-11-02T00:19:26.984Z,7.60
2018-11-02T00:21:55.378Z,7.60
2018-11-02T00:24:25.034Z,7.60
2018-11-02T00:26:53.935Z,7.60
2018-11-02T00:29:22.336Z,7.60
2018-11-02T00:31:51.576Z,7.50
2018-11-02T00:34:20.584Z,7.50
2018-11-02T00:36:49.250Z,7.50
2018-11-02T00:39:18.113Z,7.50
2018-11-02T00:41:47.113Z,7.60
2018-11-02T00:44:15.729Z,7.50
2018-11-02T00:46:44.237Z,7.60
2018-11-02T00:49:13.403Z,7.50
2018-11-02T00:51:43.299Z,7.50
2018-11-02T00:54:12.415Z,7.50
2018-11-02T00:56:41.404Z,7.50
2018-11-02T00:59:09.827Z,7.50
2018-11-02T01:01:38.318Z,7.50
2018-11-02T01:04:07.327Z,7.50
2018-11-02T01:06:36.244Z,7.50
2018-11-02T01:09:06.325Z,7.50
2018-11-02T01:11:34.874Z,7.60
2018-11-02T01:14:03.276Z,7.50
2018-11-02T01:16:32.417Z,7.50
2018-11-02T01:19:01.456Z,7.40
2018-11-02T01:21:30.472Z,7.40
2018-11-02T01:23:59.581Z,7.30
2018-11-02T01:26:28.478Z,7.30
2018-11-02T01:28:57.180Z,7.30
2018-11-02T01:31:25.689Z,7.30
2018-11-02T01:33:54.449Z,7.30
2018-11-02T01:36:22.883Z,7.30
2018-11-02T01:38:51.335Z,7.30
2018-11-02T01:41:20.339Z,7.30
2018-11-02T01:43:48.879Z,7.30
2018-11-02T01:46:17.621Z,7.30
2018-11-02T01:48:46.261Z,7.30
2018-11-02T01:51:14.911Z,7.40
2018-11-02T01:53:43.660Z,7.30
2018-11-02T01:56:12.745Z,7.30
2018-11-02T01:58:41.711Z,7.30
2018-11-02T02:01:10.181Z,7.30
2018-11-02T02:03:39.417Z,7.20
2018-11-02T02:06:07.908Z,7.20
2018-11-02T02:08:36.989Z,7.20
2018-11-02T02:11:05.976Z,7.20
2018-11-02T02:13:35.069Z,7.20
2018-11-02T02:16:03.481Z,7.20
2018-11-02T02:18:32.168Z,7.20
2018-11-02T02:21:01.444Z,7.20
2018-11-02T02:23:30.766Z,7.20
2018-11-02T02:25:59.478Z,7.20
2018-11-02T02:28:28.446Z,7.20
2018-11-02T02:30:57.379Z,7.10
2018-11-02T02:33:25.850Z,7.10
2018-11-02T02:35:54.264Z,7.00
2018-11-02T02:38:23.009Z,7.10
2018-11-02T02:40:51.461Z,7.10
2018-11-02T02:43:20.573Z,7.10
2018-11-02T02:45:49.637Z,7.10
2018-11-02T02:48:19.072Z,7.10
2018-11-02T02:50:47.521Z,7.10
2018-11-02T02:53:16.252Z,7.10
2018-11-02T02:55:45.374Z,7.10
2018-11-02T02:58:14.148Z,7.00
2018-11-02T03:00:43.154Z,7.00
2018-11-02T03:03:11.934Z,7.00
2018-11-02T03:05:40.593Z,7.00
2018-11-02T03:08:09.340Z,7.00
2018-11-02T03:10:38.097Z,7.00
2018-11-02T03:13:06.713Z,7.00
2018-11-02T03:15:35.265Z,6.90
2018-11-02T03:18:04.008Z,6.90
2018-11-02T03:20:32.731Z,6.90
2018-11-02T03:23:01.135Z,6.90
2018-11-02T03:25:30.210Z,6.90
2018-11-02T03:27:58.889Z,6.80
2018-11-02T03:30:27.906Z,6.80
2018-11-02T03:32:56.562Z,6.80
2018-11-02T03:35:25.363Z,6.80
2018-11-02T03:37:54.373Z,6.90
2018-11-02T03:40:22.871Z,6.90
2018-11-02T03:42:51.287Z,6.90
2018-11-02T03:45:19.776Z,6.90
2018-11-02T03:47:48.307Z,6.80
2018-11-02T03:50:17.460Z,6.80
2018-11-02T03:52:46.469Z,6.90
2018-11-02T03:55:15.600Z,6.90
2018-11-02T03:57:44.040Z,6.90
2018-11-02T04:00:13.317Z,6.90
2018-11-02T04:02:42.439Z,6.90
2018-11-02T04:05:11.280Z,6.90
2018-11-02T04:07:39.690Z,6.90
2018-11-02T04:10:09.582Z,6.90
2018-11-02T04:12:37.955Z,6.90
2018-11-02T04:15:06.444Z,6.80
2018-11-02T04:17:35.374Z,6.80
2018-11-02T04:20:04.518Z,6.90
2018-11-02T04:22:33.108Z,6.90
2018-11-02T04:25:01.532Z,6.90
2018-11-02T04:27:30.933Z,6.90
2018-11-02T04:29:59.974Z,6.90
2018-11-02T04:32:28.476Z,6.90
2018-11-02T04:34:57.061Z,6.90
2018-11-02T04:37:26.533Z,6.90
2018-11-02T04:39:55.305Z,6.90
2018-11-02T04:42:23.925Z,6.90
2018-11-02T04:44:52.714Z,6.90
2018-11-02T04:47:21.520Z,6.90
2018-11-02T04:49:49.960Z,6.80
2018-11-02T04:52:18.749Z,6.90
2018-11-02T04:54:47.576Z,6.90
2018-11-02T04:57:16.052Z,6.90
2018-11-02T04:59:44.951Z,6.90
2018-11-02T05:02:13.745Z,6.90
2018-11-02T05:04:42.608Z,6.90
2018-11-02T05:07:11.356Z,6.90
2018-11-02T05:09:40.057Z,6.90
2018-11-02T05:12:08.730Z,6.90
2018-11-02T05:14:37.722Z,6.90
2018-11-02T05:17:06.373Z,6.90
2018-11-02T05:19:35.735Z,6.90
2018-11-02T05:22:04.675Z,6.90
2018-11-02T05:24:33.776Z,6.90
2018-11-02T05:27:02.214Z,6.90
2018-11-02T05:29:30.636Z,6.90
2018-11-02T05:31:59.234Z,6.80
2018-11-02T05:34:27.627Z,6.80
2018-11-02T05:36:56.103Z,6.80
2018-11-02T05:39:24.557Z,6.70
2018-11-02T05:41:53.262Z,6.70
2018-11-02T05:44:22.183Z,6.70
2018-11-02T05:46:51.578Z,6.70
2018-11-02T05:49:20.264Z,6.70
2018-11-02T05:51:49.015Z,6.60
2018-11-02T05:54:17.915Z,6.60
2018-11-02T05:56:46.277Z,6.60
2018-11-02T05:59:15.017Z,6.60
2018-11-02T06:01:44.300Z,6.60
2018-11-02T06:04:12.975Z,6.60
2018-11-02T06:06:41.683Z,6.60
2018-11-02T06:09:10.574Z,6.50
2018-11-02T06:11:39.973Z,6.60
2018-11-02T06:14:09.108Z,6.60
2018-11-02T06:16:37.714Z,6.60
2018-11-02T06:19:06.456Z,6.60
2018-11-02T06:21:34.884Z,6.60
2018-11-02T06:24:03.523Z,6.60
2018-11-02T06:26:32.028Z,6.60
2018-11-02T06:29:00.996Z,6.60
2018-11-02T06:31:29.705Z,6.70
2018-11-02T06:33:58.119Z,6.70
2018-11-02T06:36:26.520Z,6.70
2018-11-02T06:38:55.308Z,6.70
2018-11-02T06:41:23.688Z,6.80
2018-11-02T06:43:52.246Z,6.80
2018-11-02T06:46:21.031Z,6.80
2018-11-02T06:48:49.521Z,6.80
2018-11-02T06:51:17.993Z,6.90
2018-11-02T06:53:46.580Z,6.90
2018-11-02T06:56:15.789Z,6.90
2018-11-02T06:58:44.275Z,6.90
2018-11-02T07:01:13.007Z,7.00
2018-11-02T07:03:41.598Z,7.00
2018-11-02T07:06:09.996Z,7.00
2018-11-02T07:08:38.552Z,7.00
2018-11-02T07:11:07.863Z,7.00
2018-11-02T07:13:36.385Z,7.00
2018-11-02T07:16:05.678Z,7.10
2018-11-02T07:18:35.126Z,7.10
2018-11-02T07:21:03.918Z,7.10
2018-11-02T07:23:32.406Z,7.20
2018-11-02T07:26:01.252Z,7.20
2018-11-02T07:28:29.759Z,7.20
2018-11-02T07:30:58.206Z,7.20
2018-11-02T07:33:26.729Z,7.30
2018-11-02T07:35:55.382Z,7.30
2018-11-02T07:38:23.954Z,7.30
2018-11-02T07:40:52.874Z,7.30
2018-11-02T07:43:21.328Z,7.30
2018-11-02T07:45:49.763Z,7.30
2018-11-02T07:48:18.296Z,7.30
2018-11-02T07:50:46.802Z,7.30
2018-11-02T07:53:16.298Z,7.30
2018-11-02T07:55:44.889Z,7.30
2018-11-02T07:58:13.447Z,7.30
2018-11-02T08:00:42.095Z,7.40
2018-11-02T08:03:11.275Z,7.40
2018-11-02T08:05:39.849Z,7.50
2018-11-02T08:08:08.470Z,7.50
2018-11-02T08:10:36.908Z,7.60
2018-11-02T08:13:06.016Z,7.60
2018-11-02T08:15:34.505Z,7.60
2018-11-02T08:18:03.073Z,7.60
2018-11-02T08:20:31.561Z,7.50
2018-11-02T08:23:00.754Z,7.50
2018-11-02T08:25:29.412Z,7.50
2018-11-02T08:27:58.057Z,7.60
2018-11-02T08:30:26.895Z,7.60
2018-11-02T08:32:55.443Z,7.70
2018-11-02T08:35:23.848Z,7.70
2018-11-02T08:37:52.305Z,7.70
2018-11-02T08:40:20.782Z,7.80
2018-11-02T08:42:49.294Z,7.80
2018-11-02T08:45:17.797Z,7.90
2018-11-02T08:47:46.246Z,7.90
2018-11-02T08:50:14.663Z,8.00
2018-11-02T08:52:43.263Z,8.00
2018-11-02T08:55:11.746Z,8.10
2018-11-02T08:57:40.368Z,8.10
2018-11-02T09:00:11.046Z,8.20
2018-11-02T09:02:39.841Z,8.20
2018-11-02T09:05:08.660Z,8.30
2018-11-02T09:07:37.498Z,8.30
2018-11-02T09:10:07.756Z,8.40
2018-11-02T09:12:36.186Z,8.40
2018-11-02T09:15:04.750Z,8.40
2018-11-02T09:17:33.502Z,8.50
2018-11-02T09:20:02.148Z,8.60
2018-11-02T09:22:31.142Z,8.60
2018-11-02T09:24:59.884Z,8.70
2018-11-02T09:27:28.436Z,8.70
2018-11-02T09:29:57.177Z,8.60
2018-11-02T09:32:25.633Z,8.70
2018-11-02T09:34:54.238Z,8.70
2018-11-02T09:37:23.268Z,8.70
2018-11-02T09:39:52.432Z,8.70
2018-11-02T09:42:21.458Z,8.80
2018-11-02T09:44:49.961Z,8.70
2018-11-02T09:47:18.384Z,8.80
2018-11-02T09:49:47.280Z,8.80
2018-11-02T09:52:16.326Z,8.80
2018-11-02T09:54:44.744Z,8.90
2018-11-02T09:57:13.806Z,8.90
2018-11-02T09:59:42.438Z,9.00
2018-11-02T10:02:11.281Z,9.10
2018-11-02T10:04:39.809Z,9.10
2018-11-02T10:07:08.774Z,9.20
2018-11-02T10:09:37.366Z,9.20
2018-11-02T10:12:06.716Z,9.30
2018-11-02T10:14:35.735Z,9.30
2018-11-02T10:17:04.560Z,9.30
2018-11-02T10:19:33.118Z,9.40
2018-11-02T10:22:02.083Z,9.40
2018-11-02T10:24:30.801Z,9.40
2018-11-02T10:26:59.613Z,9.50
2018-11-02T10:29:28.517Z,9.50
2018-11-02T10:31:57.195Z,9.50
2018-11-02T10:34:25.916Z,9.50
2018-11-02T10:36:54.908Z,9.60
2018-11-02T10:39:23.528Z,9.60
2018-11-02T10:41:54.589Z,9.70
2018-11-02T10:44:27.013Z,9.70
2018-11-02T10:46:56.171Z,9.70
2018-11-02T10:49:24.761Z,9.80
2018-11-02T10:51:53.457Z,9.90
2018-11-02T10:54:21.944Z,9.90
2018-11-02T10:56:51.240Z,9.90
2018-11-02T10:59:20.376Z,10.00
2018-11-02T11:01:51.960Z,10.00
2018-11-02T11:04:20.937Z,10.00
2018-11-02T11:06:49.406Z,10.00
2018-11-02T11:09:17.873Z,10.00
2018-11-02T11:11:46.635Z,10.00
2018-11-02T11:14:15.303Z,10.20
2018-11-02T11:16:43.755Z,10.40
2018-11-02T11:19:12.569Z,10.50
2018-11-02T11:21:42.510Z,10.50
2018-11-02T11:24:10.942Z,10.50
2018-11-02T11:26:39.644Z,10.50
2018-11-02T11:29:08.891Z,10.50
2018-11-02T11:31:37.947Z,10.50
2018-11-02T11:34:08.386Z,10.50
2018-11-02T11:36:37.346Z,10.50
2018-11-02T11:39:09.061Z,10.50
2018-11-02T11:41:37.924Z,10.50
2018-11-02T11:44:06.454Z,10.50
2018-11-02T11:46:35.262Z,10.40
2018-11-02T11:49:03.878Z,10.40
2018-11-02T11:51:32.676Z,10.40
2018-11-02T11:54:01.150Z,10.40
2018-11-02T11:56:29.814Z,10.30
2018-11-02T11:58:58.856Z,10.30
2018-11-02T12:01:27.499Z,10.30
2018-11-02T12:03:56.689Z,10.20
2018-11-02T12:06:25.214Z,10.20
2018-11-02T12:08:53.679Z,10.30
2018-11-02T12:11:22.223Z,10.20
2018-11-02T12:13:50.895Z,10.10
2018-11-02T12:16:20.415Z,10.20
2018-11-02T12:18:50.040Z,10.10
2018-11-02T12:21:18.882Z,10.10
2018-11-02T12:23:47.729Z,10.10
2018-11-02T12:26:16.532Z,10.10
2018-11-02T12:28:45.949Z,10.10
2018-11-02T12:31:14.629Z,10.10
2018-11-02T12:33:43.381Z,10.10
2018-11-02T12:36:11.918Z,10.10
2018-11-02T12:38:40.462Z,10.10
2018-11-02T12:41:09.412Z,10.10
2018-11-02T12:43:38.024Z,10.10
2018-11-02T12:46:06.539Z,10.10
2018-11-02T12:48:35.097Z,10.10
2018-11-02T12:51:03.846Z,10.10
2018-11-02T12:53:32.501Z,10.10
2018-11-02T12:56:01.485Z,10.10
2018-11-02T12:58:31.186Z,10.10
2018-11-02T13:00:59.687Z,10.10
2018-11-02T13:03:28.485Z,10.10
2018-11-02T13:05:56.969Z,10.10
2018-11-02T13:08:25.605Z,10.10
2018-11-02T13:10:54.368Z,10.10
2018-11-02T13:13:23.218Z,10.10
2018-11-02T13:15:52.215Z,10.10
2018-11-02T13:18:21.134Z,10.10
2018-11-02T13:20:49.606Z,10.20
2018-11-02T13:23:18.510Z,10.20
2018-11-02T13:25:47.055Z,10.20
2018-11-02T13:28:15.598Z,10.20
2018-11-02T13:30:44.813Z,10.20
2018-11-02T13:33:13.261Z,10.20
2018-11-02T13:35:41.855Z,10.20
2018-11-02T13:38:10.411Z,10.20
2018-11-02T13:40:38.931Z,10.20
2018-11-02T13:43:07.850Z,10.20
2018-11-02T13:45:36.179Z,10.20
2018-11-02T13:48:05.334Z,10.20
2018-11-02T13:50:33.915Z,10.20
2018-11-02T13:53:02.368Z,10.20
2018-11-02T13:55:31.342Z,10.20
2018-11-02T13:58:00.257Z,10.20
2018-11-02T14:00:29.426Z,10.20
2018-11-02T14:02:57.914Z,10.20
2018-11-02T14:05:26.745Z,10.20
2018-11-02T14:07:56.012Z,10.30
2018-11-02T14:10:24.530Z,10.40
2018-11-02T14:12:52.990Z,10.40
2018-11-02T14:15:22.008Z,10.50
2018-11-02T14:17:50.483Z,10.60
2018-11-02T14:20:19.288Z,10.60
2018-11-02T14:22:47.783Z,10.60
2018-11-02T14:25:17.187Z,10.50
2018-11-02T14:27:46.757Z,10.40
2018-11-02T14:30:16.784Z,10.30
2018-11-02T14:32:46.405Z,10.30
2018-11-02T14:35:15.417Z,10.20
2018-11-02T14:37:43.903Z,10.20
2018-11-02T14:40:12.633Z,10.10
2018-11-02T14:42:41.658Z,10.00
2018-11-02T14:45:12.355Z,10.00
2018-11-02T14:47:40.829Z,9.90
2018-11-02T14:50:10.148Z,9.90
2018-11-02T14:52:39.326Z,9.80
2018-11-02T14:55:08.338Z,9.80
2018-11-02T14:57:36.839Z,9.80
2018-11-02T15:00:07.292Z,9.80
2018-11-02T15:02:36.183Z,9.80
2018-11-02T15:05:04.952Z,9.80
2018-11-02T15:07:33.860Z,9.70
2018-11-02T15:10:02.469Z,9.70
2018-11-02T15:12:30.929Z,9.60
2018-11-02T15:14:59.528Z,9.60
2018-11-02T15:17:28.391Z,9.60
2018-11-02T15:19:57.291Z,9.50
2018-11-02T15:22:25.792Z,9.50
2018-11-02T15:24:54.256Z,9.40
2018-11-02T15:27:22.676Z,9.30
2018-11-02T15:29:51.505Z,9.20
2018-11-02T15:32:20.077Z,9.10
2018-11-02T15:34:49.030Z,9.10
2018-11-02T15:37:17.644Z,9.00
2018-11-02T15:39:46.120Z,8.90
2018-11-02T15:42:14.700Z,8.90
2018-11-02T15:44:43.364Z,8.90
2018-11-02T15:47:12.271Z,8.90
2018-11-02T15:49:40.862Z,8.90
2018-11-02T15:52:09.784Z,8.80
2018-11-02T15:54:39.369Z,8.80
2018-11-02T15:57:07.842Z,8.80
2018-11-02T15:59:36.830Z,8.70
2018-11-02T16:02:05.896Z,8.70
2018-11-02T16:04:34.507Z,8.70
2018-11-02T16:07:03.258Z,8.80
2018-11-02T16:09:31.863Z,8.70
2018-11-02T16:12:01.066Z,8.90
2018-11-02T16:14:30.927Z,8.80
2018-11-02T16:17:04.526Z,8.90
2018-11-02T16:19:33.123Z,9.00
2018-11-02T16:22:01.734Z,9.00
2018-11-02T16:24:30.853Z,9.00
2018-11-02T16:27:00.290Z,8.90
2018-11-02T16:29:28.798Z,8.90
2018-11-02T16:31:57.348Z,8.80
2018-11-02T16:34:26.763Z,8.90
2018-11-02T16:36:56.341Z,8.90
2018-11-02T16:39:24.927Z,8.90
2018-11-02T16:41:53.449Z,8.90
2018-11-02T16:44:22.270Z,8.90
2018-11-02T16:46:50.662Z,8.90
2018-11-02T16:49:19.571Z,8.90
2018-11-02T16:51:48.662Z,8.90
2018-11-02T16:54:18.250Z,8.90
2018-11-02T16:56:47.369Z,8.80
2018-11-02T16:59:15.977Z,8.80
2018-11-02T17:01:44.740Z,8.80
2018-11-02T17:04:13.745Z,8.80
2018-11-02T17:06:42.664Z,8.80
2018-11-02T17:09:12.877Z,8.80
2018-11-02T17:11:42.018Z,8.80
2018-11-02T17:14:10.439Z,8.70
2018-11-02T17:16:40.770Z,8.80
2018-11-02T17:19:11.393Z,8.70
2018-11-02T17:21:40.134Z,8.70
2018-11-02T17:24:09.112Z,8.80
2018-11-02T17:26:37.636Z,8.80
2018-11-02T17:29:06.594Z,8.70
2018-11-02T17:31:36.441Z,8.70
2018-11-02T17:34:06.082Z,8.60
2018-11-02T17:36:34.846Z,8.60
2018-11-02T17:39:03.742Z,8.60
2018-11-02T17:41:32.710Z,8.60
2018-11-02T17:44:01.404Z,8.70
2018-11-02T17:46:30.670Z,8.60
2018-11-02T17:48:59.322Z,8.60
2018-11-02T17:51:29.150Z,8.60
2018-11-02T17:53:57.902Z,8.60
2018-11-02T17:56:26.656Z,8.70
2018-11-02T17:58:56.160Z,8.70
2018-11-02T18:01:25.014Z,8.70
2018-11-02T18:03:53.955Z,8.80
2018-11-02T18:06:22.739Z,8.80
2018-11-02T18:08:51.817Z,8.70
2018-11-02T18:11:20.614Z,8.70
2018-11-02T18:13:49.290Z,8.70
2018-11-02T18:16:18.144Z,8.70
2018-11-02T18:18:47.086Z,8.60
2018-11-02T18:21:15.953Z,8.70
2018-11-02T18:23:45.069Z,8.60
2018-11-02T18:26:14.314Z,8.60
2018-11-02T18:28:43.593Z,8.60
2018-11-02T18:31:12.264Z,8.60
2018-11-02T18:33:41.572Z,8.60
2018-11-02T18:36:10.387Z,8.50
2018-11-02T18:38:39.924Z,8.50
2018-11-02T18:41:08.981Z,8.50
2018-11-02T18:43:39.721Z,8.50
2018-11-02T18:46:09.614Z,8.50
2018-11-02T18:48:38.347Z,8.60
2018-11-02T18:51:07.723Z,8.50
2018-11-02T18:53:37.968Z,8.50
2018-11-02T18:56:07.050Z,8.50
2018-11-02T18:58:35.775Z,8.50
2018-11-02T19:01:05.887Z,8.50
2018-11-02T19:03:34.687Z,8.50
2018-11-02T19:06:03.650Z,8.60
2018-11-02T19:08:33.081Z,8.60
2018-11-02T19:11:04.878Z,8.50
2018-11-02T19:13:33.760Z,8.50
2018-11-02T19:16:02.564Z,8.60
2018-11-02T19:18:31.158Z,8.60
2018-11-02T19:20:59.969Z,8.50
2018-11-02T19:23:28.855Z,8.50
2018-11-02T19:25:58.614Z,8.50
2018-11-02T19:28:28.323Z,8.40
2018-11-02T19:30:57.446Z,8.50
2018-11-02T19:33:27.478Z,8.40
2018-11-02T19:35:56.125Z,8.40
2018-11-02T19:38:28.374Z,8.40
2018-11-02T19:40:57.612Z,8.40
2018-11-02T19:43:28.197Z,8.40
2018-11-02T19:45:58.002Z,8.40
2018-11-02T19:48:27.969Z,8.40
2018-11-02T19:50:57.026Z,8.40
2018-11-02T19:53:25.593Z,8.50
2018-11-02T19:55:54.226Z,8.50
2018-11-02T19:58:23.180Z,8.50
2018-11-02T20:00:51.847Z,8.40
2018-11-02T20:03:21.086Z,8.50
2018-11-02T20:05:49.664Z,8.50
2018-11-02T20:08:18.616Z,8.50
2018-11-02T20:10:48.035Z,8.40
2018-11-02T20:13:21.494Z,8.40
2018-11-02T20:15:50.442Z,8.50
2018-11-02T20:18:19.695Z,8.40
2018-11-02T20:20:48.961Z,8.40
2018-11-02T20:23:17.906Z,8.40
2018-11-02T20:25:52.529Z,8.40
2018-11-02T20:28:20.995Z,8.40
2018-11-02T20:30:52.870Z,8.40
2018-11-02T20:33:22.113Z,8.40
2018-11-02T20:35:52.448Z,8.40
2018-11-02T20:38:21.167Z,8.40
2018-11-02T20:40:50.714Z,8.40
2018-11-02T20:43:19.714Z,8.40
2018-11-02T20:45:48.832Z,8.40
2018-11-02T20:48:18.618Z,8.50
2018-11-02T20:50:47.689Z,8.40
2018-11-02T20:53:17.253Z,8.40
2018-11-02T20:55:46.536Z,8.40
2018-11-02T20:58:16.799Z,8.50
2018-11-02T21:00:45.512Z,8.50
2018-11-02T21:03:15.627Z,8.50
2018-11-02T21:05:44.508Z,8.50
2018-11-02T21:08:13.235Z,8.60
2018-11-02T21:10:49.088Z,8.60
2018-11-02T21:13:18.314Z,8.50
2018-11-02T21:15:47.025Z,8.50
2018-11-02T21:18:15.948Z,8.60
2018-11-02T21:20:44.808Z,8.60
2018-11-02T21:23:13.705Z,8.60
2018-11-02T21:25:43.364Z,8.60
2018-11-02T21:28:12.225Z,8.60
2018-11-02T21:30:41.423Z,8.60
2018-11-02T21:33:10.574Z,8.60
2018-11-02T21:35:40.296Z,8.50
2018-11-02T21:38:08.990Z,8.60
2018-11-02T21:40:39.284Z,8.50
2018-11-02T21:43:08.222Z,8.50
2018-11-02T21:45:37.416Z,8.50
2018-11-02T21:48:06.237Z,8.50
2018-11-02T21:50:35.821Z,8.50
2018-11-02T21:53:04.615Z,8.50
2018-11-02T21:55:33.561Z,8.50
2018-11-02T21:58:04.873Z,8.50
2018-11-02T22:00:33.494Z,8.50
2018-11-02T22:03:03.500Z,8.50
2018-11-02T22:05:33.483Z,8.50
2018-11-02T22:08:01.993Z,8.50
2018-11-02T22:10:31.094Z,8.50
2018-11-02T22:12:59.780Z,8.50
2018-11-02T22:15:29.749Z,8.50
2018-11-02T22:17:58.513Z,8.50
2018-11-02T22:20:27.263Z,8.50
2018-11-02T22:22:56.123Z,8.50
2018-11-02T22:25:24.892Z,8.50
2018-11-02T22:27:55.153Z,8.50
2018-11-02T22:30:25.628Z,8.50
2018-11-02T22:32:54.358Z,8.60
2018-11-02T22:35:22.806Z,8.60
2018-11-02T22:37:52.036Z,8.60
2018-11-02T22:40:21.268Z,8.60
2018-11-02T22:42:50.380Z,8.60
2018-11-02T22:45:19.246Z,8.60
2018-11-02T22:47:53.322Z,8.60
2018-11-02T22:50:21.828Z,8.60
2018-11-02T22:52:50.523Z,8.60
2018-11-02T22:55:19.476Z,8.60
2018-11-02T22:57:49.399Z,8.60
2018-11-02T23:00:19.127Z,8.60
2018-11-02T23:02:48.593Z,8.60
2018-11-02T23:05:17.177Z,8.50
2018-11-02T23:07:46.189Z,8.60
2018-11-02T23:10:15.142Z,8.50
2018-11-02T23:12:44.382Z,8.60
2018-11-02T23:15:13.841Z,8.60
2018-11-02T23:17:42.850Z,8.60
2018-11-02T23:20:13.363Z,8.60
2018-11-02T23:22:41.926Z,8.60
2018-11-02T23:25:11.390Z,8.60
2018-11-02T23:27:40.840Z,8.60
2018-11-02T23:30:11.338Z,8.70
2018-11-02T23:32:39.718Z,8.60
2018-11-02T23:35:08.811Z,8.70
2018-11-02T23:37:38.386Z,8.70
2018-11-02T23:40:08.844Z,8.60
2018-11-02T23:42:37.652Z,8.60
2018-11-02T23:45:06.857Z,8.60
2018-11-02T23:47:35.744Z,8.60
2018-11-02T23:50:05.009Z,8.60
2018-11-02T23:52:34.552Z,8.60
2018-11-02T23:55:03.171Z,8.60
2018-11-02T23:57:31.571Z,8.60
